sensor_id;sensor_type;location;lat;lon;timestamp;P1;durP1;ratioP1;P2;durP2;ratioP2
72639;SDS011;60683;51.730;8.762;2023-04-19T00:01:21;6.78;;;2.63;;
72639;SDS011;60683;51.730;8.762;2023-04-19T00:03:49;5.63;;;2.55;;
72639;SDS011;60683;51.730;8.762;2023-04-19T00:06:17;4.55;;;1.95;;
72639;SDS011;60683;51.730;8.762;2023-04-19T00:08:46;5.30;;;2.70;;
72639;SDS011;60683;51.730;8.762;2023-04-19T00:11:13;3.80;;;2.42;;
72639;SDS011;60683;51.730;8.762;2023-04-19T00:13:41;6.43;;;2.95;;
72639;SDS011;60683;51.730;8.762;2023-04-19T00:16:10;3.88;;;2.28;;
72639;SDS011;60683;51.730;8.762;2023-04-19T00:18:39;6.28;;;2.72;;
72639;SDS011;60683;51.730;8.762;2023-04-19T00:21:07;5.15;;;2.88;;
72639;SDS011;60683;51.730;8.762;2023-04-19T00:23:35;5.80;;;2.10;;
72639;SDS011;60683;51.730;8.762;2023-04-19T00:26:03;4.57;;;1.92;;
72639;SDS011;60683;51.730;8.762;2023-04-19T00:28:32;6.55;;;2.00;;
72639;SDS011;60683;51.730;8.762;2023-04-19T00:30:59;4.82;;;2.10;;
72639;SDS011;60683;51.730;8.762;2023-04-19T00:33:29;5.88;;;2.75;;
72639;SDS011;60683;51.730;8.762;2023-04-19T00:35:57;4.60;;;2.10;;
72639;SDS011;60683;51.730;8.762;2023-04-19T00:38:29;5.35;;;2.65;;
72639;SDS011;60683;51.730;8.762;2023-04-19T00:40:58;4.30;;;2.28;;
72639;SDS011;60683;51.730;8.762;2023-04-19T00:43:26;5.57;;;2.63;;
72639;SDS011;60683;51.730;8.762;2023-04-19T00:45:54;5.25;;;1.95;;
72639;SDS011;60683;51.730;8.762;2023-04-19T00:48:23;4.00;;;1.98;;
72639;SDS011;60683;51.730;8.762;2023-04-19T00:50:53;4.65;;;3.35;;
72639;SDS011;60683;51.730;8.762;2023-04-19T00:53:22;4.45;;;2.40;;
72639;SDS011;60683;51.730;8.762;2023-04-19T00:55:51;5.07;;;2.17;;
72639;SDS011;60683;51.730;8.762;2023-04-19T00:58:19;3.50;;;1.73;;
72639;SDS011;60683;51.730;8.762;2023-04-19T01:00:47;5.70;;;2.80;;
72639;SDS011;60683;51.730;8.762;2023-04-19T01:03:15;5.13;;;2.53;;
72639;SDS011;60683;51.730;8.762;2023-04-19T01:05:42;6.35;;;2.85;;
72639;SDS011;60683;51.730;8.762;2023-04-19T01:08:12;5.25;;;2.45;;
72639;SDS011;60683;51.730;8.762;2023-04-19T01:10:41;4.13;;;1.90;;
72639;SDS011;60683;51.730;8.762;2023-04-19T01:13:09;5.35;;;1.98;;
72639;SDS011;60683;51.730;8.762;2023-04-19T01:15:36;4.50;;;2.35;;
72639;SDS011;60683;51.730;8.762;2023-04-19T01:18:04;2.55;;;1.38;;
72639;SDS011;60683;51.730;8.762;2023-04-19T01:20:32;4.32;;;1.63;;
72639;SDS011;60683;51.730;8.762;2023-04-19T01:23:01;5.22;;;2.28;;
72639;SDS011;60683;51.730;8.762;2023-04-19T01:25:28;5.07;;;2.25;;
72639;SDS011;60683;51.730;8.762;2023-04-19T01:27:56;4.20;;;2.03;;
72639;SDS011;60683;51.730;8.762;2023-04-19T01:30:23;4.93;;;2.17;;
72639;SDS011;60683;51.730;8.762;2023-04-19T01:32:51;5.10;;;2.80;;
72639;SDS011;60683;51.730;8.762;2023-04-19T01:35:18;4.97;;;2.17;;
72639;SDS011;60683;51.730;8.762;2023-04-19T01:37:46;4.25;;;2.28;;
72639;SDS011;60683;51.730;8.762;2023-04-19T01:40:16;6.07;;;3.00;;
72639;SDS011;60683;51.730;8.762;2023-04-19T01:42:44;6.53;;;2.95;;
72639;SDS011;60683;51.730;8.762;2023-04-19T01:45:11;5.15;;;2.45;;
72639;SDS011;60683;51.730;8.762;2023-04-19T01:47:39;6.30;;;3.22;;
72639;SDS011;60683;51.730;8.762;2023-04-19T01:50:06;6.18;;;2.58;;
72639;SDS011;60683;51.730;8.762;2023-04-19T01:52:35;4.78;;;2.05;;
72639;SDS011;60683;51.730;8.762;2023-04-19T01:55:03;4.75;;;2.40;;
72639;SDS011;60683;51.730;8.762;2023-04-19T01:57:32;5.10;;;2.30;;
72639;SDS011;60683;51.730;8.762;2023-04-19T01:59:59;5.57;;;2.55;;
72639;SDS011;60683;51.730;8.762;2023-04-19T02:02:28;6.28;;;2.75;;
72639;SDS011;60683;51.730;8.762;2023-04-19T02:04:56;7.00;;;3.05;;
72639;SDS011;60683;51.730;8.762;2023-04-19T02:07:23;6.82;;;2.97;;
72639;SDS011;60683;51.730;8.762;2023-04-19T02:09:51;4.82;;;2.58;;
72639;SDS011;60683;51.730;8.762;2023-04-19T02:12:19;5.97;;;3.05;;
72639;SDS011;60683;51.730;8.762;2023-04-19T02:14:47;7.38;;;3.33;;
72639;SDS011;60683;51.730;8.762;2023-04-19T02:17:16;8.63;;;3.70;;
72639;SDS011;60683;51.730;8.762;2023-04-19T02:19:43;6.88;;;2.50;;
72639;SDS011;60683;51.730;8.762;2023-04-19T02:22:11;6.18;;;3.35;;
72639;SDS011;60683;51.730;8.762;2023-04-19T02:24:38;5.65;;;2.58;;
72639;SDS011;60683;51.730;8.762;2023-04-19T02:27:06;7.97;;;3.10;;
72639;SDS011;60683;51.730;8.762;2023-04-19T02:29:34;5.10;;;2.40;;
72639;SDS011;60683;51.730;8.762;2023-04-19T02:32:03;7.43;;;3.15;;
72639;SDS011;60683;51.730;8.762;2023-04-19T02:34:31;8.25;;;3.45;;
72639;SDS011;60683;51.730;8.762;2023-04-19T02:36:59;6.47;;;3.20;;
72639;SDS011;60683;51.730;8.762;2023-04-19T02:39:27;5.70;;;2.83;;
72639;SDS011;60683;51.730;8.762;2023-04-19T02:41:55;6.20;;;3.08;;
72639;SDS011;60683;51.730;8.762;2023-04-19T02:44:23;7.32;;;3.60;;
72639;SDS011;60683;51.730;8.762;2023-04-19T02:46:51;6.50;;;2.97;;
72639;SDS011;60683;51.730;8.762;2023-04-19T02:49:20;7.80;;;3.50;;
72639;SDS011;60683;51.730;8.762;2023-04-19T02:51:49;6.28;;;3.35;;
72639;SDS011;60683;51.730;8.762;2023-04-19T02:54:16;7.93;;;3.63;;
72639;SDS011;60683;51.730;8.762;2023-04-19T02:56:44;7.35;;;3.22;;
72639;SDS011;60683;51.730;8.762;2023-04-19T02:59:11;8.77;;;4.32;;
72639;SDS011;60683;51.730;8.762;2023-04-19T03:01:39;8.10;;;4.05;;
72639;SDS011;60683;51.730;8.762;2023-04-19T03:04:06;7.97;;;3.33;;
72639;SDS011;60683;51.730;8.762;2023-04-19T03:06:35;7.20;;;3.63;;
72639;SDS011;60683;51.730;8.762;2023-04-19T03:09:03;8.23;;;4.05;;
72639;SDS011;60683;51.730;8.762;2023-04-19T03:11:31;5.47;;;2.72;;
72639;SDS011;60683;51.730;8.762;2023-04-19T03:13:58;6.80;;;3.35;;
72639;SDS011;60683;51.730;8.762;2023-04-19T03:16:26;7.30;;;3.50;;
72639;SDS011;60683;51.730;8.762;2023-04-19T03:18:55;7.97;;;3.70;;
72639;SDS011;60683;51.730;8.762;2023-04-19T03:21:22;6.10;;;3.00;;
72639;SDS011;60683;51.730;8.762;2023-04-19T03:23:53;8.52;;;3.85;;
72639;SDS011;60683;51.730;8.762;2023-04-19T03:26:21;8.15;;;3.28;;
72639;SDS011;60683;51.730;8.762;2023-04-19T03:28:48;8.65;;;3.58;;
72639;SDS011;60683;51.730;8.762;2023-04-19T03:31:17;7.43;;;3.70;;
72639;SDS011;60683;51.730;8.762;2023-04-19T03:33:44;6.47;;;2.53;;
72639;SDS011;60683;51.730;8.762;2023-04-19T03:36:11;8.52;;;3.35;;
72639;SDS011;60683;51.730;8.762;2023-04-19T03:38:39;6.07;;;3.25;;
72639;SDS011;60683;51.730;8.762;2023-04-19T03:41:17;9.60;;;3.08;;
72639;SDS011;60683;51.730;8.762;2023-04-19T03:43:45;6.63;;;3.80;;
72639;SDS011;60683;51.730;8.762;2023-04-19T03:46:13;6.70;;;3.20;;
72639;SDS011;60683;51.730;8.762;2023-04-19T03:48:40;4.55;;;2.70;;
72639;SDS011;60683;51.730;8.762;2023-04-19T03:51:08;7.25;;;3.38;;
72639;SDS011;60683;51.730;8.762;2023-04-19T03:53:36;5.28;;;2.45;;
72639;SDS011;60683;51.730;8.762;2023-04-19T03:56:03;5.13;;;1.83;;
72639;SDS011;60683;51.730;8.762;2023-04-19T03:58:33;6.03;;;2.38;;
72639;SDS011;60683;51.730;8.762;2023-04-19T04:01:00;4.72;;;2.35;;
72639;SDS011;60683;51.730;8.762;2023-04-19T04:03:28;4.28;;;1.75;;
72639;SDS011;60683;51.730;8.762;2023-04-19T04:05:57;6.00;;;4.13;;
72639;SDS011;60683;51.730;8.762;2023-04-19T04:08:24;5.75;;;2.67;;
72639;SDS011;60683;51.730;8.762;2023-04-19T04:10:52;5.38;;;2.03;;
72639;SDS011;60683;51.730;8.762;2023-04-19T04:13:20;4.88;;;2.38;;
72639;SDS011;60683;51.730;8.762;2023-04-19T04:15:49;5.03;;;2.80;;
72639;SDS011;60683;51.730;8.762;2023-04-19T04:18:17;6.55;;;3.00;;
72639;SDS011;60683;51.730;8.762;2023-04-19T04:20:44;7.75;;;3.25;;
72639;SDS011;60683;51.730;8.762;2023-04-19T04:23:12;6.15;;;2.53;;
72639;SDS011;60683;51.730;8.762;2023-04-19T04:25:40;7.70;;;3.10;;
72639;SDS011;60683;51.730;8.762;2023-04-19T04:28:07;4.97;;;2.20;;
72639;SDS011;60683;51.730;8.762;2023-04-19T04:30:35;5.30;;;2.50;;
72639;SDS011;60683;51.730;8.762;2023-04-19T04:33:04;6.57;;;2.83;;
72639;SDS011;60683;51.730;8.762;2023-04-19T04:35:33;6.53;;;2.88;;
72639;SDS011;60683;51.730;8.762;2023-04-19T04:38:01;5.97;;;2.47;;
72639;SDS011;60683;51.730;8.762;2023-04-19T04:40:30;6.25;;;2.08;;
72639;SDS011;60683;51.730;8.762;2023-04-19T04:42:57;5.32;;;2.50;;
72639;SDS011;60683;51.730;8.762;2023-04-19T04:45:29;6.68;;;2.50;;
72639;SDS011;60683;51.730;8.762;2023-04-19T04:47:56;5.30;;;2.13;;
72639;SDS011;60683;51.730;8.762;2023-04-19T04:50:26;4.65;;;1.95;;
72639;SDS011;60683;51.730;8.762;2023-04-19T04:52:53;4.22;;;2.53;;
72639;SDS011;60683;51.730;8.762;2023-04-19T04:55:21;3.45;;;2.00;;
72639;SDS011;60683;51.730;8.762;2023-04-19T04:57:48;2.20;;;1.33;;
72639;SDS011;60683;51.730;8.762;2023-04-19T05:00:16;5.97;;;2.47;;
72639;SDS011;60683;51.730;8.762;2023-04-19T05:02:44;5.18;;;2.20;;
72639;SDS011;60683;51.730;8.762;2023-04-19T05:05:12;4.32;;;1.77;;
72639;SDS011;60683;51.730;8.762;2023-04-19T05:07:41;3.13;;;1.27;;
72639;SDS011;60683;51.730;8.762;2023-04-19T05:10:09;6.88;;;2.60;;
72639;SDS011;60683;51.730;8.762;2023-04-19T05:12:36;4.75;;;1.50;;
72639;SDS011;60683;51.730;8.762;2023-04-19T05:15:05;5.18;;;1.70;;
72639;SDS011;60683;51.730;8.762;2023-04-19T05:17:33;3.20;;;1.40;;
72639;SDS011;60683;51.730;8.762;2023-04-19T05:20:03;2.38;;;1.38;;
72639;SDS011;60683;51.730;8.762;2023-04-19T05:22:32;4.78;;;1.80;;
72639;SDS011;60683;51.730;8.762;2023-04-19T05:25:01;6.75;;;2.55;;
72639;SDS011;60683;51.730;8.762;2023-04-19T05:27:29;3.45;;;1.42;;
72639;SDS011;60683;51.730;8.762;2023-04-19T05:29:57;4.88;;;1.95;;
72639;SDS011;60683;51.730;8.762;2023-04-19T05:32:24;4.28;;;2.25;;
72639;SDS011;60683;51.730;8.762;2023-04-19T05:34:52;5.70;;;2.08;;
72639;SDS011;60683;51.730;8.762;2023-04-19T05:37:20;2.80;;;1.67;;
72639;SDS011;60683;51.730;8.762;2023-04-19T05:39:49;3.85;;;1.85;;
72639;SDS011;60683;51.730;8.762;2023-04-19T05:42:17;3.60;;;1.40;;
72639;SDS011;60683;51.730;8.762;2023-04-19T05:44:46;3.08;;;1.38;;
72639;SDS011;60683;51.730;8.762;2023-04-19T05:47:14;3.72;;;1.77;;
72639;SDS011;60683;51.730;8.762;2023-04-19T05:49:42;4.90;;;1.67;;
72639;SDS011;60683;51.730;8.762;2023-04-19T05:52:10;5.13;;;2.20;;
72639;SDS011;60683;51.730;8.762;2023-04-19T05:54:37;3.83;;;1.55;;
72639;SDS011;60683;51.730;8.762;2023-04-19T05:57:05;3.25;;;1.35;;
72639;SDS011;60683;51.730;8.762;2023-04-19T05:59:33;4.45;;;1.90;;
72639;SDS011;60683;51.730;8.762;2023-04-19T06:02:01;7.90;;;2.00;;
72639;SDS011;60683;51.730;8.762;2023-04-19T06:04:29;3.50;;;1.48;;
72639;SDS011;60683;51.730;8.762;2023-04-19T06:06:57;5.18;;;1.58;;
72639;SDS011;60683;51.730;8.762;2023-04-19T06:09:24;4.95;;;1.33;;
72639;SDS011;60683;51.730;8.762;2023-04-19T06:11:51;3.63;;;1.38;;
72639;SDS011;60683;51.730;8.762;2023-04-19T06:14:19;5.78;;;2.25;;
72639;SDS011;60683;51.730;8.762;2023-04-19T06:16:50;2.90;;;1.48;;
72639;SDS011;60683;51.730;8.762;2023-04-19T06:19:17;3.47;;;1.27;;
72639;SDS011;60683;51.730;8.762;2023-04-19T06:21:46;3.80;;;1.35;;
72639;SDS011;60683;51.730;8.762;2023-04-19T06:24:14;1.67;;;0.82;;
72639;SDS011;60683;51.730;8.762;2023-04-19T06:26:41;3.72;;;1.83;;
72639;SDS011;60683;51.730;8.762;2023-04-19T06:29:09;3.20;;;1.45;;
72639;SDS011;60683;51.730;8.762;2023-04-19T06:31:36;2.08;;;0.88;;
72639;SDS011;60683;51.730;8.762;2023-04-19T06:34:06;2.90;;;1.00;;
72639;SDS011;60683;51.730;8.762;2023-04-19T06:36:33;2.65;;;1.02;;
72639;SDS011;60683;51.730;8.762;2023-04-19T06:39:01;6.05;;;1.52;;
72639;SDS011;60683;51.730;8.762;2023-04-19T06:41:29;4.25;;;1.33;;
72639;SDS011;60683;51.730;8.762;2023-04-19T06:43:56;3.47;;;1.30;;
72639;SDS011;60683;51.730;8.762;2023-04-19T06:46:24;3.97;;;1.10;;
72639;SDS011;60683;51.730;8.762;2023-04-19T06:48:52;2.30;;;0.80;;
72639;SDS011;60683;51.730;8.762;2023-04-19T06:51:21;4.43;;;1.60;;
72639;SDS011;60683;51.730;8.762;2023-04-19T06:53:48;3.17;;;1.00;;
72639;SDS011;60683;51.730;8.762;2023-04-19T06:56:16;2.35;;;1.10;;
72639;SDS011;60683;51.730;8.762;2023-04-19T06:58:44;2.88;;;1.30;;
72639;SDS011;60683;51.730;8.762;2023-04-19T07:01:12;3.00;;;1.33;;
72639;SDS011;60683;51.730;8.762;2023-04-19T07:03:39;3.78;;;1.30;;
72639;SDS011;60683;51.730;8.762;2023-04-19T07:06:06;2.92;;;1.40;;
72639;SDS011;60683;51.730;8.762;2023-04-19T07:08:36;1.77;;;0.80;;
72639;SDS011;60683;51.730;8.762;2023-04-19T07:11:04;4.28;;;1.65;;
72639;SDS011;60683;51.730;8.762;2023-04-19T07:13:31;2.55;;;1.40;;
72639;SDS011;60683;51.730;8.762;2023-04-19T07:16:00;3.10;;;1.60;;
72639;SDS011;60683;51.730;8.762;2023-04-19T07:18:30;4.53;;;1.52;;
72639;SDS011;60683;51.730;8.762;2023-04-19T07:20:57;4.15;;;1.45;;
72639;SDS011;60683;51.730;8.762;2023-04-19T07:23:25;3.53;;;1.40;;
72639;SDS011;60683;51.730;8.762;2023-04-19T07:25:54;2.78;;;1.30;;
72639;SDS011;60683;51.730;8.762;2023-04-19T07:28:21;3.50;;;1.80;;
72639;SDS011;60683;51.730;8.762;2023-04-19T07:30:49;3.42;;;1.50;;
72639;SDS011;60683;51.730;8.762;2023-04-19T07:33:17;2.83;;;1.23;;
72639;SDS011;60683;51.730;8.762;2023-04-19T07:35:44;2.80;;;1.40;;
72639;SDS011;60683;51.730;8.762;2023-04-19T07:38:12;5.07;;;1.42;;
72639;SDS011;60683;51.730;8.762;2023-04-19T07:40:39;4.28;;;1.70;;
72639;SDS011;60683;51.730;8.762;2023-04-19T07:43:08;3.22;;;1.65;;
72639;SDS011;60683;51.730;8.762;2023-04-19T07:45:35;2.50;;;0.90;;
72639;SDS011;60683;51.730;8.762;2023-04-19T07:48:03;4.88;;;1.75;;
72639;SDS011;60683;51.730;8.762;2023-04-19T07:50:31;5.30;;;2.13;;
72639;SDS011;60683;51.730;8.762;2023-04-19T07:52:59;3.17;;;1.48;;
72639;SDS011;60683;51.730;8.762;2023-04-19T07:55:26;5.93;;;2.00;;
72639;SDS011;60683;51.730;8.762;2023-04-19T07:57:54;4.72;;;1.73;;
72639;SDS011;60683;51.730;8.762;2023-04-19T08:00:23;5.78;;;1.40;;
72639;SDS011;60683;51.730;8.762;2023-04-19T08:02:52;6.55;;;1.45;;
72639;SDS011;60683;51.730;8.762;2023-04-19T08:05:19;2.55;;;1.13;;
72639;SDS011;60683;51.730;8.762;2023-04-19T08:07:49;1.75;;;1.10;;
72639;SDS011;60683;51.730;8.762;2023-04-19T08:10:18;2.67;;;1.23;;
72639;SDS011;60683;51.730;8.762;2023-04-19T08:12:47;11.68;;;1.63;;
72639;SDS011;60683;51.730;8.762;2023-04-19T08:15:16;5.07;;;1.67;;
72639;SDS011;60683;51.730;8.762;2023-04-19T08:17:45;5.05;;;1.73;;
72639;SDS011;60683;51.730;8.762;2023-04-19T08:20:12;2.38;;;1.00;;
72639;SDS011;60683;51.730;8.762;2023-04-19T08:22:41;3.58;;;1.23;;
72639;SDS011;60683;51.730;8.762;2023-04-19T08:25:08;2.67;;;1.05;;
72639;SDS011;60683;51.730;8.762;2023-04-19T08:27:36;2.90;;;1.02;;
72639;SDS011;60683;51.730;8.762;2023-04-19T08:30:05;3.17;;;1.05;;
72639;SDS011;60683;51.730;8.762;2023-04-19T08:32:34;3.28;;;1.30;;
72639;SDS011;60683;51.730;8.762;2023-04-19T08:35:03;4.25;;;1.63;;
72639;SDS011;60683;51.730;8.762;2023-04-19T08:37:33;4.15;;;2.20;;
72639;SDS011;60683;51.730;8.762;2023-04-19T08:40:01;2.97;;;1.75;;
72639;SDS011;60683;51.730;8.762;2023-04-19T08:42:29;4.75;;;1.67;;
72639;SDS011;60683;51.730;8.762;2023-04-19T08:44:59;2.45;;;0.90;;
72639;SDS011;60683;51.730;8.762;2023-04-19T08:47:31;2.60;;;0.75;;
72639;SDS011;60683;51.730;8.762;2023-04-19T08:49:59;1.98;;;0.95;;
72639;SDS011;60683;51.730;8.762;2023-04-19T08:52:29;2.97;;;1.02;;
72639;SDS011;60683;51.730;8.762;2023-04-19T08:55:00;1.90;;;1.02;;
72639;SDS011;60683;51.730;8.762;2023-04-19T08:57:29;3.33;;;1.60;;
72639;SDS011;60683;51.730;8.762;2023-04-19T08:59:56;2.85;;;1.25;;
72639;SDS011;60683;51.730;8.762;2023-04-19T09:02:24;3.53;;;1.17;;
72639;SDS011;60683;51.730;8.762;2023-04-19T09:04:52;3.92;;;1.67;;
72639;SDS011;60683;51.730;8.762;2023-04-19T09:07:23;2.10;;;1.27;;
72639;SDS011;60683;51.730;8.762;2023-04-19T09:10:06;4.22;;;1.02;;
72639;SDS011;60683;51.730;8.762;2023-04-19T09:12:35;2.60;;;1.27;;
72639;SDS011;60683;51.730;8.762;2023-04-19T09:15:04;3.28;;;1.77;;
72639;SDS011;60683;51.730;8.762;2023-04-19T09:17:34;3.65;;;1.23;;
72639;SDS011;60683;51.730;8.762;2023-04-19T09:20:03;2.67;;;1.10;;
72639;SDS011;60683;51.730;8.762;2023-04-19T09:22:32;3.30;;;1.35;;
72639;SDS011;60683;51.730;8.762;2023-04-19T09:25:00;3.13;;;1.25;;
72639;SDS011;60683;51.730;8.762;2023-04-19T09:27:30;3.72;;;1.20;;
72639;SDS011;60683;51.730;8.762;2023-04-19T09:29:59;2.78;;;1.27;;
72639;SDS011;60683;51.730;8.762;2023-04-19T09:32:27;2.78;;;1.10;;
72639;SDS011;60683;51.730;8.762;2023-04-19T09:34:55;3.45;;;1.27;;
72639;SDS011;60683;51.730;8.762;2023-04-19T09:37:24;2.22;;;1.00;;
72639;SDS011;60683;51.730;8.762;2023-04-19T09:39:52;2.40;;;1.20;;
72639;SDS011;60683;51.730;8.762;2023-04-19T09:42:21;2.85;;;1.08;;
72639;SDS011;60683;51.730;8.762;2023-04-19T09:44:56;2.65;;;1.35;;
72639;SDS011;60683;51.730;8.762;2023-04-19T09:47:24;3.15;;;1.45;;
72639;SDS011;60683;51.730;8.762;2023-04-19T09:52:40;4.18;;;1.42;;
72639;SDS011;60683;51.730;8.762;2023-04-19T09:55:08;3.85;;;1.63;;
72639;SDS011;60683;51.730;8.762;2023-04-19T09:57:36;3.38;;;1.55;;
72639;SDS011;60683;51.730;8.762;2023-04-19T10:00:06;2.05;;;1.02;;
72639;SDS011;60683;51.730;8.762;2023-04-19T10:02:38;5.38;;;1.33;;
72639;SDS011;60683;51.730;8.762;2023-04-19T10:05:06;3.10;;;1.85;;
72639;SDS011;60683;51.730;8.762;2023-04-19T10:07:35;2.58;;;1.08;;
72639;SDS011;60683;51.730;8.762;2023-04-19T10:10:03;3.63;;;1.27;;
72639;SDS011;60683;51.730;8.762;2023-04-19T10:12:36;2.90;;;1.10;;
72639;SDS011;60683;51.730;8.762;2023-04-19T10:15:06;4.55;;;1.30;;
72639;SDS011;60683;51.730;8.762;2023-04-19T10:17:36;3.47;;;1.63;;
72639;SDS011;60683;51.730;8.762;2023-04-19T10:20:05;3.20;;;1.30;;
72639;SDS011;60683;51.730;8.762;2023-04-19T10:22:36;3.72;;;1.63;;
72639;SDS011;60683;51.730;8.762;2023-04-19T10:25:08;4.50;;;1.35;;
72639;SDS011;60683;51.730;8.762;2023-04-19T10:30:18;4.57;;;1.90;;
72639;SDS011;60683;51.730;8.762;2023-04-19T10:32:51;4.13;;;1.80;;
72639;SDS011;60683;51.730;8.762;2023-04-19T10:35:21;5.43;;;1.83;;
72639;SDS011;60683;51.730;8.762;2023-04-19T10:38:05;3.03;;;1.05;;
72639;SDS011;60683;51.730;8.762;2023-04-19T10:40:53;2.35;;;1.00;;
72639;SDS011;60683;51.730;8.762;2023-04-19T10:43:22;3.20;;;1.38;;
72639;SDS011;60683;51.730;8.762;2023-04-19T10:45:51;4.32;;;1.17;;
72639;SDS011;60683;51.730;8.762;2023-04-19T10:51:18;3.03;;;1.17;;
72639;SDS011;60683;51.730;8.762;2023-04-19T10:53:48;4.53;;;1.42;;
72639;SDS011;60683;51.730;8.762;2023-04-19T10:56:18;3.05;;;1.13;;
72639;SDS011;60683;51.730;8.762;2023-04-19T11:01:49;3.65;;;1.48;;
72639;SDS011;60683;51.730;8.762;2023-04-19T11:04:18;4.00;;;1.30;;
72639;SDS011;60683;51.730;8.762;2023-04-19T11:07:00;2.65;;;1.15;;
72639;SDS011;60683;51.730;8.762;2023-04-19T11:09:30;2.97;;;1.17;;
72639;SDS011;60683;51.730;8.762;2023-04-19T11:11:59;2.78;;;1.48;;
72639;SDS011;60683;51.730;8.762;2023-04-19T11:14:31;2.55;;;1.40;;
72639;SDS011;60683;51.730;8.762;2023-04-19T11:17:03;3.30;;;1.23;;
72639;SDS011;60683;51.730;8.762;2023-04-19T11:19:41;3.05;;;1.23;;
72639;SDS011;60683;51.730;8.762;2023-04-19T11:22:10;3.08;;;1.63;;
72639;SDS011;60683;51.730;8.762;2023-04-19T11:24:43;4.00;;;1.63;;
72639;SDS011;60683;51.730;8.762;2023-04-19T11:27:11;5.10;;;1.88;;
72639;SDS011;60683;51.730;8.762;2023-04-19T11:29:39;2.58;;;1.23;;
72639;SDS011;60683;51.730;8.762;2023-04-19T11:32:08;3.53;;;1.83;;
72639;SDS011;60683;51.730;8.762;2023-04-19T11:34:36;2.85;;;1.23;;
72639;SDS011;60683;51.730;8.762;2023-04-19T11:37:04;4.75;;;1.77;;
72639;SDS011;60683;51.730;8.762;2023-04-19T11:39:32;3.67;;;1.48;;
72639;SDS011;60683;51.730;8.762;2023-04-19T11:41:59;2.45;;;0.90;;
72639;SDS011;60683;51.730;8.762;2023-04-19T11:44:28;3.53;;;1.50;;
72639;SDS011;60683;51.730;8.762;2023-04-19T11:46:59;3.05;;;1.60;;
72639;SDS011;60683;51.730;8.762;2023-04-19T11:49:30;3.92;;;2.10;;
72639;SDS011;60683;51.730;8.762;2023-04-19T11:51:58;3.75;;;1.15;;
72639;SDS011;60683;51.730;8.762;2023-04-19T11:54:27;3.00;;;1.50;;
72639;SDS011;60683;51.730;8.762;2023-04-19T11:56:58;3.00;;;1.50;;
72639;SDS011;60683;51.730;8.762;2023-04-19T11:59:28;3.15;;;1.38;;
72639;SDS011;60683;51.730;8.762;2023-04-19T12:01:56;3.05;;;1.42;;
72639;SDS011;60683;51.730;8.762;2023-04-19T12:04:32;3.47;;;1.75;;
72639;SDS011;60683;51.730;8.762;2023-04-19T12:07:00;3.17;;;1.33;;
72639;SDS011;60683;51.730;8.762;2023-04-19T12:09:29;2.05;;;1.02;;
72639;SDS011;60683;51.730;8.762;2023-04-19T12:11:58;2.85;;;1.42;;
72639;SDS011;60683;51.730;8.762;2023-04-19T12:14:27;4.75;;;1.60;;
72639;SDS011;60683;51.730;8.762;2023-04-19T12:17:05;1.52;;;0.80;;
72639;SDS011;60683;51.730;8.762;2023-04-19T12:19:36;3.60;;;1.60;;
72639;SDS011;60683;51.730;8.762;2023-04-19T12:22:08;3.58;;;1.35;;
72639;SDS011;60683;51.730;8.762;2023-04-19T12:24:37;3.58;;;1.27;;
72639;SDS011;60683;51.730;8.762;2023-04-19T12:27:05;2.63;;;1.20;;
72639;SDS011;60683;51.730;8.762;2023-04-19T12:29:32;3.03;;;1.05;;
72639;SDS011;60683;51.730;8.762;2023-04-19T12:32:00;5.47;;;1.88;;
72639;SDS011;60683;51.730;8.762;2023-04-19T12:34:28;2.53;;;1.30;;
72639;SDS011;60683;51.730;8.762;2023-04-19T12:36:56;4.93;;;1.52;;
72639;SDS011;60683;51.730;8.762;2023-04-19T12:39:25;4.18;;;1.70;;
72639;SDS011;60683;51.730;8.762;2023-04-19T12:41:53;3.30;;;1.42;;
72639;SDS011;60683;51.730;8.762;2023-04-19T12:44:21;5.18;;;2.33;;
72639;SDS011;60683;51.730;8.762;2023-04-19T12:46:48;5.65;;;1.30;;
72639;SDS011;60683;51.730;8.762;2023-04-19T12:49:16;3.83;;;1.20;;
72639;SDS011;60683;51.730;8.762;2023-04-19T12:51:44;1.83;;;1.10;;
72639;SDS011;60683;51.730;8.762;2023-04-19T12:54:14;2.88;;;1.25;;
72639;SDS011;60683;51.730;8.762;2023-04-19T12:56:42;3.13;;;1.00;;
72639;SDS011;60683;51.730;8.762;2023-04-19T12:59:09;3.15;;;1.42;;
72639;SDS011;60683;51.730;8.762;2023-04-19T13:01:37;3.42;;;1.27;;
72639;SDS011;60683;51.730;8.762;2023-04-19T13:04:04;2.25;;;1.17;;
72639;SDS011;60683;51.730;8.762;2023-04-19T13:06:36;4.05;;;1.42;;
72639;SDS011;60683;51.730;8.762;2023-04-19T13:09:05;2.97;;;1.27;;
72639;SDS011;60683;51.730;8.762;2023-04-19T13:11:33;4.90;;;1.50;;
72639;SDS011;60683;51.730;8.762;2023-04-19T13:14:01;2.63;;;1.20;;
72639;SDS011;60683;51.730;8.762;2023-04-19T13:16:28;1.88;;;0.93;;
72639;SDS011;60683;51.730;8.762;2023-04-19T13:18:56;2.40;;;1.25;;
72639;SDS011;60683;51.730;8.762;2023-04-19T13:21:23;2.83;;;1.50;;
72639;SDS011;60683;51.730;8.762;2023-04-19T13:23:53;2.75;;;1.20;;
72639;SDS011;60683;51.730;8.762;2023-04-19T13:26:20;4.25;;;1.40;;
72639;SDS011;60683;51.730;8.762;2023-04-19T13:28:50;4.75;;;1.70;;
72639;SDS011;60683;51.730;8.762;2023-04-19T13:31:17;3.13;;;1.25;;
72639;SDS011;60683;51.730;8.762;2023-04-19T13:33:45;2.25;;;1.23;;
72639;SDS011;60683;51.730;8.762;2023-04-19T13:36:12;2.53;;;1.23;;
72639;SDS011;60683;51.730;8.762;2023-04-19T13:38:40;2.40;;;1.23;;
72639;SDS011;60683;51.730;8.762;2023-04-19T13:41:07;3.78;;;1.05;;
72639;SDS011;60683;51.730;8.762;2023-04-19T13:43:35;2.60;;;0.98;;
72639;SDS011;60683;51.730;8.762;2023-04-19T13:46:03;3.72;;;1.50;;
72639;SDS011;60683;51.730;8.762;2023-04-19T13:48:31;2.58;;;1.30;;
72639;SDS011;60683;51.730;8.762;2023-04-19T13:50:59;3.85;;;0.85;;
72639;SDS011;60683;51.730;8.762;2023-04-19T13:53:27;3.67;;;1.60;;
72639;SDS011;60683;51.730;8.762;2023-04-19T13:55:54;3.08;;;1.10;;
72639;SDS011;60683;51.730;8.762;2023-04-19T13:58:22;3.53;;;1.30;;
72639;SDS011;60683;51.730;8.762;2023-04-19T14:00:50;2.65;;;1.08;;
72639;SDS011;60683;51.730;8.762;2023-04-19T14:03:20;3.20;;;1.10;;
72639;SDS011;60683;51.730;8.762;2023-04-19T14:05:47;2.50;;;0.95;;
72639;SDS011;60683;51.730;8.762;2023-04-19T14:08:15;4.00;;;1.30;;
72639;SDS011;60683;51.730;8.762;2023-04-19T14:10:43;2.58;;;1.23;;
72639;SDS011;60683;51.730;8.762;2023-04-19T14:13:11;2.13;;;0.93;;
72639;SDS011;60683;51.730;8.762;2023-04-19T14:15:38;3.97;;;1.42;;
72639;SDS011;60683;51.730;8.762;2023-04-19T14:18:06;3.55;;;1.30;;
72639;SDS011;60683;51.730;8.762;2023-04-19T14:20:34;2.75;;;1.30;;
72639;SDS011;60683;51.730;8.762;2023-04-19T14:23:02;3.72;;;1.60;;
72639;SDS011;60683;51.730;8.762;2023-04-19T14:25:30;2.70;;;1.10;;
72639;SDS011;60683;51.730;8.762;2023-04-19T14:27:57;2.47;;;1.20;;
72639;SDS011;60683;51.730;8.762;2023-04-19T14:30:24;2.65;;;0.90;;
72639;SDS011;60683;51.730;8.762;2023-04-19T14:32:52;2.80;;;1.35;;
72639;SDS011;60683;51.730;8.762;2023-04-19T14:35:19;6.30;;;1.75;;
72639;SDS011;60683;51.730;8.762;2023-04-19T14:37:49;2.92;;;1.20;;
72639;SDS011;60683;51.730;8.762;2023-04-19T14:40:16;2.88;;;1.42;;
72639;SDS011;60683;51.730;8.762;2023-04-19T14:42:45;2.72;;;1.38;;
72639;SDS011;60683;51.730;8.762;2023-04-19T14:45:12;4.75;;;1.02;;
72639;SDS011;60683;51.730;8.762;2023-04-19T14:47:40;2.08;;;1.13;;
72639;SDS011;60683;51.730;8.762;2023-04-19T14:50:07;4.28;;;1.17;;
72639;SDS011;60683;51.730;8.762;2023-04-19T14:52:35;3.25;;;1.23;;
72639;SDS011;60683;51.730;8.762;2023-04-19T14:55:04;1.88;;;1.00;;
72639;SDS011;60683;51.730;8.762;2023-04-19T14:57:33;2.92;;;1.23;;
72639;SDS011;60683;51.730;8.762;2023-04-19T15:00:00;4.47;;;1.70;;
72639;SDS011;60683;51.730;8.762;2023-04-19T15:02:28;2.95;;;1.05;;
72639;SDS011;60683;51.730;8.762;2023-04-19T15:04:55;2.92;;;1.15;;
72639;SDS011;60683;51.730;8.762;2023-04-19T15:07:23;3.38;;;1.50;;